Valentia, Spain

11:47 PM CET die 17o February, anno 2019 (GMT +0100)
temps rafelguaraf | | Change Station

Elev 147 ft 39.05 °N, 0.45 °W | Updated 5 seconds ago

Mostly Cloudy
Plerumque Nubila
48.9 °F
Feels Like 49 °F
N
0.7
Ventus Variabilis Ventus from Magis Auster quam Zephyrus
Gusts 1.1 mph

Hodie
High -- | Low -- °F
--% Chance of Precip.
Yesterday
High -- | Low -- °F
Precip. -- in
Pressio 30.27 in
Visibilitas 6.2 milia passuum
Clouds Plerumque Nubila 3500 ft
Frigus Venti 49 °F
Frigus in quo Ros apparet 46 °F
Umor 89%
Rainfall 0.00 in
Snow Depth Not available.
7:51 AM 6:40 PM
Waxing Gibbous, 96% visible
METAR LEVC 172230Z 33003KT 290V360 9999 BKN035 11/07 Q1025 NOSIG
Pressio 30.27 in
Visibilitas 6.2 milia passuum
Clouds Plerumque Nubila 3500 ft
Frigus Venti 49 °F
Frigus in quo Ros apparet 46 °F
Umor 89%
Rainfall 0.00 in
Snow Depth Not available.
7:51 AM 6:40 PM
Waxing Gibbous, 96% visible
METAR LEVC 172230Z 33003KT 290V360 9999 BKN035 11/07 Q1025 NOSIG

Get Severe Weather Alerts

Thanks for signing up!

Be on the lookout for a verification email in your inbox.

You'll start receiving the daily forecast at 6 AM.

×

10-Day Weather Forecast

×

Almanac

Astronomy

Feb. 17, 2019 Rise Set
Actual Time
Civil Twilight
Nautical Twilight
Astronomical Twilight
Moon
Length Of Visible Light
Length of Day
Tomorrow will be .
, % of the Moon is Illuminated

Today's Extremes

Country Highs Country Lows

Community

WunderPhotos

Category 6

Welcome to Category 6. This is the collective home for Weather Underground's featured writeups by Dr. Jeff Masters (right), Bob Henson (left), Chris Burt, and other regular contributors.

Nearby

Air Quality

  Air Quality AQ Index Pollutant
Not available.

Snow Depth

Station Depth Elevation

Earthquake Activity

City Distance Mag. Time & Date
Minimum magnitude displayed is 2.5.

Coastal Water Temperatures

Locus Calor

Stations

Nearby Weather Stations

Station Location Temp Frigus Venti Frigus in quo Ros apparet Umor Ventus Precip. Elev Renovata Type